sensor_id;sensor_type;location;lat;lon;timestamp;pressure;altitude;pressure_sealevel;temperature
12430;BMP280;6279;42.192;24.326;2023-08-20T00:02:23;99160.06;;;23.02
12430;BMP280;6279;42.192;24.326;2023-08-20T00:04:49;99158.06;;;22.93
12430;BMP280;6279;42.192;24.326;2023-08-20T00:07:15;99155.16;;;22.94
12430;BMP280;6279;42.192;24.326;2023-08-20T00:09:43;99146.22;;;22.84
12430;BMP280;6279;42.192;24.326;2023-08-20T00:12:09;99145.28;;;22.90
12430;BMP280;6279;42.192;24.326;2023-08-20T00:17:20;99142.94;;;22.93
12430;BMP280;6279;42.192;24.326;2023-08-20T00:19:45;99146.16;;;22.95
12430;BMP280;6279;42.192;24.326;2023-08-20T00:22:11;99134.00;;;22.99
12430;BMP280;6279;42.192;24.326;2023-08-20T00:24:37;99127.34;;;22.97
12430;BMP280;6279;42.192;24.326;2023-08-20T00:27:02;99126.28;;;22.98
12430;BMP280;6279;42.192;24.326;2023-08-20T00:29:28;99123.25;;;22.89
12430;BMP280;6279;42.192;24.326;2023-08-20T00:31:53;99134.31;;;22.86
12430;BMP280;6279;42.192;24.326;2023-08-20T00:34:18;99139.97;;;22.90
12430;BMP280;6279;42.192;24.326;2023-08-20T00:36:44;99138.19;;;22.95
12430;BMP280;6279;42.192;24.326;2023-08-20T00:39:09;99134.25;;;22.98
12430;BMP280;6279;42.192;24.326;2023-08-20T00:41:34;99133.78;;;23.01
12430;BMP280;6279;42.192;24.326;2023-08-20T00:44:00;99128.16;;;22.97
12430;BMP280;6279;42.192;24.326;2023-08-20T00:46:25;99125.00;;;22.84
12430;BMP280;6279;42.192;24.326;2023-08-20T00:48:51;99123.09;;;22.80
12430;BMP280;6279;42.192;24.326;2023-08-20T00:51:17;99123.56;;;22.77
12430;BMP280;6279;42.192;24.326;2023-08-20T00:53:42;99126.03;;;22.67
12430;BMP280;6279;42.192;24.326;2023-08-20T00:56:08;99125.94;;;22.62
12430;BMP280;6279;42.192;24.326;2023-08-20T00:58:34;99121.19;;;22.64
12430;BMP280;6279;42.192;24.326;2023-08-20T01:00:59;99117.50;;;22.65
12430;BMP280;6279;42.192;24.326;2023-08-20T01:03:25;99117.72;;;22.63
12430;BMP280;6279;42.192;24.326;2023-08-20T01:05:53;99115.16;;;22.52
12430;BMP280;6279;42.192;24.326;2023-08-20T01:08:38;99108.00;;;22.37
12430;BMP280;6279;42.192;24.326;2023-08-20T01:11:16;99108.81;;;22.37
12430;BMP280;6279;42.192;24.326;2023-08-20T01:13:42;99109.97;;;22.30
12430;BMP280;6279;42.192;24.326;2023-08-20T01:16:08;99094.63;;;22.32
12430;BMP280;6279;42.192;24.326;2023-08-20T01:18:33;99096.09;;;22.39
12430;BMP280;6279;42.192;24.326;2023-08-20T01:21:02;99095.78;;;22.36
12430;BMP280;6279;42.192;24.326;2023-08-20T01:28:38;99100.13;;;22.14
12430;BMP280;6279;42.192;24.326;2023-08-20T01:31:05;99090.69;;;22.18
12430;BMP280;6279;42.192;24.326;2023-08-20T01:33:31;99100.56;;;22.22
12430;BMP280;6279;42.192;24.326;2023-08-20T01:35:56;99100.34;;;22.24
12430;BMP280;6279;42.192;24.326;2023-08-20T01:38:22;99097.88;;;22.06
12430;BMP280;6279;42.192;24.326;2023-08-20T01:40:48;99090.91;;;22.00
12430;BMP280;6279;42.192;24.326;2023-08-20T01:43:13;99094.72;;;21.82
12430;BMP280;6279;42.192;24.326;2023-08-20T01:45:39;99092.66;;;21.73
12430;BMP280;6279;42.192;24.326;2023-08-20T01:48:05;99095.34;;;21.61
12430;BMP280;6279;42.192;24.326;2023-08-20T01:50:32;99084.81;;;21.50
12430;BMP280;6279;42.192;24.326;2023-08-20T01:52:58;99085.84;;;21.49
12430;BMP280;6279;42.192;24.326;2023-08-20T01:55:23;99084.41;;;21.58
12430;BMP280;6279;42.192;24.326;2023-08-20T01:57:48;99078.88;;;21.59
12430;BMP280;6279;42.192;24.326;2023-08-20T02:00:14;99078.88;;;21.59
12430;BMP280;6279;42.192;24.326;2023-08-20T02:02:40;99079.38;;;21.45
12430;BMP280;6279;42.192;24.326;2023-08-20T02:05:05;99082.63;;;21.25
12430;BMP280;6279;42.192;24.326;2023-08-20T02:07:31;99085.28;;;21.13
12430;BMP280;6279;42.192;24.326;2023-08-20T02:09:56;99087.47;;;21.16
12430;BMP280;6279;42.192;24.326;2023-08-20T02:12:21;99074.81;;;21.07
12430;BMP280;6279;42.192;24.326;2023-08-20T02:14:47;99080.22;;;21.01
12430;BMP280;6279;42.192;24.326;2023-08-20T02:17:12;99079.06;;;20.97
12430;BMP280;6279;42.192;24.326;2023-08-20T02:19:38;99086.06;;;20.91
12430;BMP280;6279;42.192;24.326;2023-08-20T02:22:04;99075.88;;;20.95
12430;BMP280;6279;42.192;24.326;2023-08-20T02:24:30;99078.28;;;20.96
12430;BMP280;6279;42.192;24.326;2023-08-20T02:26:55;99080.22;;;21.01
12430;BMP280;6279;42.192;24.326;2023-08-20T02:29:20;99086.19;;;21.08
12430;BMP280;6279;42.192;24.326;2023-08-20T02:31:46;99088.81;;;21.08
12430;BMP280;6279;42.192;24.326;2023-08-20T02:34:11;99084.38;;;20.97
12430;BMP280;6279;42.192;24.326;2023-08-20T02:36:37;99091.94;;;20.82
12430;BMP280;6279;42.192;24.326;2023-08-20T02:39:02;99102.50;;;20.82
12430;BMP280;6279;42.192;24.326;2023-08-20T02:41:29;99090.91;;;20.94
12430;BMP280;6279;42.192;24.326;2023-08-20T02:43:55;99088.72;;;21.03
12430;BMP280;6279;42.192;24.326;2023-08-20T02:46:20;99095.63;;;21.04
12430;BMP280;6279;42.192;24.326;2023-08-20T02:48:45;99086.66;;;21.05
12430;BMP280;6279;42.192;24.326;2023-08-20T02:51:11;99092.75;;;21.05
12430;BMP280;6279;42.192;24.326;2023-08-20T02:53:36;99094.69;;;21.09
12430;BMP280;6279;42.192;24.326;2023-08-20T02:56:01;99091.72;;;21.17
12430;BMP280;6279;42.192;24.326;2023-08-20T02:58:28;99088.38;;;21.10
12430;BMP280;6279;42.192;24.326;2023-08-20T03:00:54;99091.59;;;21.12
12430;BMP280;6279;42.192;24.326;2023-08-20T03:03:19;99093.88;;;21.09
12430;BMP280;6279;42.192;24.326;2023-08-20T03:05:44;99101.16;;;21.13
12430;BMP280;6279;42.192;24.326;2023-08-20T03:08:10;99098.59;;;21.18
12430;BMP280;6279;42.192;24.326;2023-08-20T03:10:36;99098.03;;;21.16
12430;BMP280;6279;42.192;24.326;2023-08-20T03:13:02;99094.59;;;21.16
12430;BMP280;6279;42.192;24.326;2023-08-20T03:15:29;99090.09;;;21.16
12430;BMP280;6279;42.192;24.326;2023-08-20T03:17:54;99089.75;;;21.13
12430;BMP280;6279;42.192;24.326;2023-08-20T03:20:20;99100.22;;;21.19
12430;BMP280;6279;42.192;24.326;2023-08-20T03:22:45;99104.50;;;21.20
12430;BMP280;6279;42.192;24.326;2023-08-20T03:25:11;99104.59;;;21.25
12430;BMP280;6279;42.192;24.326;2023-08-20T03:27:36;99101.72;;;21.27
12430;BMP280;6279;42.192;24.326;2023-08-20T03:30:03;99096.44;;;21.27
12430;BMP280;6279;42.192;24.326;2023-08-20T03:32:29;99091.28;;;21.20
12430;BMP280;6279;42.192;24.326;2023-08-20T03:34:54;99091.28;;;21.20
12430;BMP280;6279;42.192;24.326;2023-08-20T03:37:21;99094.59;;;21.05
12430;BMP280;6279;42.192;24.326;2023-08-20T03:39:47;99093.53;;;21.06
12430;BMP280;6279;42.192;24.326;2023-08-20T03:42:12;99101.50;;;21.17
12430;BMP280;6279;42.192;24.326;2023-08-20T03:44:38;99105.06;;;21.22
12430;BMP280;6279;42.192;24.326;2023-08-20T03:47:03;99089.66;;;21.31
12430;BMP280;6279;42.192;24.326;2023-08-20T03:49:28;99100.69;;;21.39
12430;BMP280;6279;42.192;24.326;2023-08-20T03:51:54;99096.41;;;21.49
12430;BMP280;6279;42.192;24.326;2023-08-20T03:54:19;99103.19;;;21.56
12430;BMP280;6279;42.192;24.326;2023-08-20T03:56:45;99105.16;;;21.50
12430;BMP280;6279;42.192;24.326;2023-08-20T03:59:10;99097.31;;;21.54
12430;BMP280;6279;42.192;24.326;2023-08-20T04:01:36;99102.16;;;21.57
12430;BMP280;6279;42.192;24.326;2023-08-20T04:04:03;99094.19;;;21.57
12430;BMP280;6279;42.192;24.326;2023-08-20T04:06:28;99095.34;;;21.61
12430;BMP280;6279;42.192;24.326;2023-08-20T04:08:54;99098.44;;;21.70
12430;BMP280;6279;42.192;24.326;2023-08-20T04:11:19;99098.19;;;21.71
12430;BMP280;6279;42.192;24.326;2023-08-20T04:13:44;99091.88;;;21.72
12430;BMP280;6279;42.192;24.326;2023-08-20T04:16:10;99098.06;;;21.77
12430;BMP280;6279;42.192;24.326;2023-08-20T04:18:36;99096.34;;;21.83
12430;BMP280;6279;42.192;24.326;2023-08-20T04:21:01;99097.91;;;21.95
12430;BMP280;6279;42.192;24.326;2023-08-20T04:23:26;99100.44;;;22.01
12430;BMP280;6279;42.192;24.326;2023-08-20T04:25:52;99100.06;;;22.09
12430;BMP280;6279;42.192;24.326;2023-08-20T04:28:18;99100.13;;;22.14
12430;BMP280;6279;42.192;24.326;2023-08-20T04:30:43;99101.22;;;22.29
12430;BMP280;6279;42.192;24.326;2023-08-20T04:33:11;99103.75;;;22.36
12430;BMP280;6279;42.192;24.326;2023-08-20T04:35:37;99108.00;;;22.37
12430;BMP280;6279;42.192;24.326;2023-08-20T04:38:02;99102.69;;;22.37
12430;BMP280;6279;42.192;24.326;2023-08-20T04:40:28;99113.47;;;22.46
12430;BMP280;6279;42.192;24.326;2023-08-20T04:42:53;99112.03;;;22.55
12430;BMP280;6279;42.192;24.326;2023-08-20T04:45:19;99113.94;;;22.71
12430;BMP280;6279;42.192;24.326;2023-08-20T04:47:45;99105.50;;;22.90
12430;BMP280;6279;42.192;24.326;2023-08-20T04:50:11;99109.50;;;23.08
12430;BMP280;6279;42.192;24.326;2023-08-20T04:52:36;99114.44;;;23.21
12430;BMP280;6279;42.192;24.326;2023-08-20T04:55:05;99115.25;;;23.38
12430;BMP280;6279;42.192;24.326;2023-08-20T04:57:31;99108.59;;;23.56
12430;BMP280;6279;42.192;24.326;2023-08-20T04:59:57;99103.19;;;23.68
12430;BMP280;6279;42.192;24.326;2023-08-20T05:02:22;99111.34;;;23.82
12430;BMP280;6279;42.192;24.326;2023-08-20T05:04:48;99104.03;;;23.94
12430;BMP280;6279;42.192;24.326;2023-08-20T05:07:14;99106.34;;;24.07
12430;BMP280;6279;42.192;24.326;2023-08-20T05:09:39;99113.25;;;24.08
12430;BMP280;6279;42.192;24.326;2023-08-20T05:12:05;99114.47;;;24.21
12430;BMP280;6279;42.192;24.326;2023-08-20T05:14:30;99113.47;;;24.27
12430;BMP280;6279;42.192;24.326;2023-08-20T05:16:56;99115.56;;;24.25
12430;BMP280;6279;42.192;24.326;2023-08-20T05:19:22;99123.47;;;24.41
12430;BMP280;6279;42.192;24.326;2023-08-20T05:21:47;99125.97;;;24.53
12430;BMP280;6279;42.192;24.326;2023-08-20T05:24:12;99132.47;;;24.66
12430;BMP280;6279;42.192;24.326;2023-08-20T05:26:38;99137.94;;;24.81
12430;BMP280;6279;42.192;24.326;2023-08-20T05:29:03;99133.72;;;24.85
12430;BMP280;6279;42.192;24.326;2023-08-20T05:31:28;99136.63;;;24.84
12430;BMP280;6279;42.192;24.326;2023-08-20T05:33:54;99137.50;;;24.89
12430;BMP280;6279;42.192;24.326;2023-08-20T05:36:19;99129.84;;;24.97
12430;BMP280;6279;42.192;24.326;2023-08-20T05:38:45;99137.69;;;25.13
12430;BMP280;6279;42.192;24.326;2023-08-20T05:41:10;99133.81;;;25.30
12430;BMP280;6279;42.192;24.326;2023-08-20T05:43:35;99131.81;;;25.42
12430;BMP280;6279;42.192;24.326;2023-08-20T05:46:03;99129.25;;;25.67
12430;BMP280;6279;42.192;24.326;2023-08-20T05:48:29;99143.00;;;25.95
12430;BMP280;6279;42.192;24.326;2023-08-20T05:50:55;99148.38;;;26.04
12430;BMP280;6279;42.192;24.326;2023-08-20T05:53:22;99134.03;;;26.15
12430;BMP280;6279;42.192;24.326;2023-08-20T05:55:47;99131.66;;;26.23
12430;BMP280;6279;42.192;24.326;2023-08-20T05:58:12;99128.31;;;26.67
12430;BMP280;6279;42.192;24.326;2023-08-20T06:00:38;99139.50;;;26.98
12430;BMP280;6279;42.192;24.326;2023-08-20T06:03:03;99145.13;;;27.07
12430;BMP280;6279;42.192;24.326;2023-08-20T06:05:29;99145.91;;;27.46
12430;BMP280;6279;42.192;24.326;2023-08-20T06:07:54;99153.09;;;27.60
12430;BMP280;6279;42.192;24.326;2023-08-20T06:10:20;99154.38;;;27.82
12430;BMP280;6279;42.192;24.326;2023-08-20T06:12:45;99150.59;;;27.98
12430;BMP280;6279;42.192;24.326;2023-08-20T06:15:10;99148.59;;;28.23
12430;BMP280;6279;42.192;24.326;2023-08-20T06:17:36;99150.97;;;28.34
12430;BMP280;6279;42.192;24.326;2023-08-20T06:20:01;99152.78;;;28.48
12430;BMP280;6279;42.192;24.326;2023-08-20T06:22:30;99154.56;;;28.63
12430;BMP280;6279;42.192;24.326;2023-08-20T06:24:56;99157.56;;;28.94
12430;BMP280;6279;42.192;24.326;2023-08-20T06:27:23;99156.94;;;29.07
12430;BMP280;6279;42.192;24.326;2023-08-20T06:29:48;99161.72;;;29.09
12430;BMP280;6279;42.192;24.326;2023-08-20T06:32:13;99158.19;;;29.14
12430;BMP280;6279;42.192;24.326;2023-08-20T06:34:39;99165.53;;;29.31
12430;BMP280;6279;42.192;24.326;2023-08-20T06:37:04;99154.00;;;29.31
12430;BMP280;6279;42.192;24.326;2023-08-20T06:39:29;99160.09;;;29.41
12430;BMP280;6279;42.192;24.326;2023-08-20T06:41:55;99167.31;;;29.46
12430;BMP280;6279;42.192;24.326;2023-08-20T06:44:21;99157.19;;;29.38
12430;BMP280;6279;42.192;24.326;2023-08-20T06:46:46;99162.31;;;29.62
12430;BMP280;6279;42.192;24.326;2023-08-20T06:49:11;99164.75;;;29.87
12430;BMP280;6279;42.192;24.326;2023-08-20T06:51:37;99166.78;;;29.95
12430;BMP280;6279;42.192;24.326;2023-08-20T06:54:02;99161.06;;;29.78
12430;BMP280;6279;42.192;24.326;2023-08-20T06:56:30;99152.41;;;30.09
12430;BMP280;6279;42.192;24.326;2023-08-20T06:58:56;99164.06;;;29.99
12430;BMP280;6279;42.192;24.326;2023-08-20T07:01:21;99160.84;;;30.20
12430;BMP280;6279;42.192;24.326;2023-08-20T07:03:46;99167.31;;;30.38
12430;BMP280;6279;42.192;24.326;2023-08-20T07:06:12;99166.22;;;29.97
12430;BMP280;6279;42.192;24.326;2023-08-20T07:08:39;99165.41;;;29.97
12430;BMP280;6279;42.192;24.326;2023-08-20T07:11:06;99169.94;;;30.24
12430;BMP280;6279;42.192;24.326;2023-08-20T07:13:32;99166.63;;;30.50
12430;BMP280;6279;42.192;24.326;2023-08-20T07:15:57;99166.03;;;30.89
12430;BMP280;6279;42.192;24.326;2023-08-20T07:18:22;99169.72;;;31.29
12430;BMP280;6279;42.192;24.326;2023-08-20T07:20:48;99164.81;;;31.63
12430;BMP280;6279;42.192;24.326;2023-08-20T07:23:13;99178.22;;;32.07
12430;BMP280;6279;42.192;24.326;2023-08-20T07:25:40;99173.22;;;32.40
12430;BMP280;6279;42.192;24.326;2023-08-20T07:28:07;99177.34;;;33.07
12430;BMP280;6279;42.192;24.326;2023-08-20T07:30:33;99175.13;;;33.82
12430;BMP280;6279;42.192;24.326;2023-08-20T07:32:59;99170.69;;;34.33
12430;BMP280;6279;42.192;24.326;2023-08-20T07:35:24;99176.69;;;34.60
12430;BMP280;6279;42.192;24.326;2023-08-20T07:37:50;99176.69;;;35.18
12430;BMP280;6279;42.192;24.326;2023-08-20T07:40:16;99180.63;;;35.37
12430;BMP280;6279;42.192;24.326;2023-08-20T07:42:41;99174.63;;;35.93
12430;BMP280;6279;42.192;24.326;2023-08-20T07:45:07;99174.13;;;36.36
12430;BMP280;6279;42.192;24.326;2023-08-20T07:47:34;99171.69;;;36.63
12430;BMP280;6279;42.192;24.326;2023-08-20T07:49:59;99176.31;;;36.63
12430;BMP280;6279;42.192;24.326;2023-08-20T07:52:25;99171.59;;;37.20
12430;BMP280;6279;42.192;24.326;2023-08-20T07:54:50;99158.19;;;37.90
12430;BMP280;6279;42.192;24.326;2023-08-20T07:57:16;99170.56;;;38.58
12430;BMP280;6279;42.192;24.326;2023-08-20T07:59:41;99166.34;;;39.11
12430;BMP280;6279;42.192;24.326;2023-08-20T08:02:06;99170.75;;;40.15
12430;BMP280;6279;42.192;24.326;2023-08-20T08:04:33;99164.41;;;39.80
12430;BMP280;6279;42.192;24.326;2023-08-20T08:06:59;99168.75;;;39.54
12430;BMP280;6279;42.192;24.326;2023-08-20T08:09:29;99160.34;;;40.05
12430;BMP280;6279;42.192;24.326;2023-08-20T08:11:55;99164.66;;;40.36
12430;BMP280;6279;42.192;24.326;2023-08-20T08:14:22;99164.88;;;41.33
12430;BMP280;6279;42.192;24.326;2023-08-20T08:16:47;99159.41;;;42.17
12430;BMP280;6279;42.192;24.326;2023-08-20T08:19:13;99147.94;;;43.49
12430;BMP280;6279;42.192;24.326;2023-08-20T08:21:39;99159.00;;;44.51
12430;BMP280;6279;42.192;24.326;2023-08-20T08:24:05;99156.06;;;44.73
12430;BMP280;6279;42.192;24.326;2023-08-20T08:26:31;99152.38;;;44.00
12430;BMP280;6279;42.192;24.326;2023-08-20T08:28:56;99158.53;;;43.18
12430;BMP280;6279;42.192;24.326;2023-08-20T08:31:23;99149.59;;;42.38
12430;BMP280;6279;42.192;24.326;2023-08-20T08:33:48;99154.53;;;41.63
12430;BMP280;6279;42.192;24.326;2023-08-20T08:36:14;99146.09;;;40.94
12430;BMP280;6279;42.192;24.326;2023-08-20T08:38:42;99151.56;;;40.26
12430;BMP280;6279;42.192;24.326;2023-08-20T08:41:10;99145.56;;;40.70
12430;BMP280;6279;42.192;24.326;2023-08-20T08:43:37;99152.13;;;41.21
12430;BMP280;6279;42.192;24.326;2023-08-20T08:46:06;99151.19;;;41.51
12430;BMP280;6279;42.192;24.326;2023-08-20T08:48:34;99148.81;;;41.68
12430;BMP280;6279;42.192;24.326;2023-08-20T08:51:01;99142.16;;;41.29
12430;BMP280;6279;42.192;24.326;2023-08-20T08:53:27;99143.25;;;40.87
12430;BMP280;6279;42.192;24.326;2023-08-20T08:55:53;99143.13;;;42.02
12430;BMP280;6279;42.192;24.326;2023-08-20T08:58:19;99135.97;;;41.72
12430;BMP280;6279;42.192;24.326;2023-08-20T09:00:44;99130.03;;;41.08
12430;BMP280;6279;42.192;24.326;2023-08-20T09:03:10;99143.84;;;40.28
12430;BMP280;6279;42.192;24.326;2023-08-20T09:05:48;99133.22;;;40.08
12430;BMP280;6279;42.192;24.326;2023-08-20T09:08:28;99136.16;;;40.49
12430;BMP280;6279;42.192;24.326;2023-08-20T09:10:55;99129.44;;;40.13
12430;BMP280;6279;42.192;24.326;2023-08-20T09:13:42;99127.50;;;40.81
12430;BMP280;6279;42.192;24.326;2023-08-20T09:16:11;99130.59;;;41.16
12430;BMP280;6279;42.192;24.326;2023-08-20T09:18:41;99122.16;;;42.35
12430;BMP280;6279;42.192;24.326;2023-08-20T09:21:11;99126.16;;;43.63
12430;BMP280;6279;42.192;24.326;2023-08-20T09:23:37;99126.75;;;43.82
12430;BMP280;6279;42.192;24.326;2023-08-20T09:26:05;99127.66;;;43.57
12430;BMP280;6279;42.192;24.326;2023-08-20T09:28:41;99124.63;;;44.11
12430;BMP280;6279;42.192;24.326;2023-08-20T09:31:07;99120.22;;;45.33
12430;BMP280;6279;42.192;24.326;2023-08-20T09:33:32;99119.50;;;46.18
12430;BMP280;6279;42.192;24.326;2023-08-20T09:35:58;99102.69;;;47.21
12430;BMP280;6279;42.192;24.326;2023-08-20T09:38:24;99107.22;;;47.48
12430;BMP280;6279;42.192;24.326;2023-08-20T09:40:53;99104.81;;;47.53
12430;BMP280;6279;42.192;24.326;2023-08-20T09:43:23;99108.09;;;47.88
12430;BMP280;6279;42.192;24.326;2023-08-20T09:45:52;99097.16;;;47.21
12430;BMP280;6279;42.192;24.326;2023-08-20T09:48:20;99096.25;;;47.94
12430;BMP280;6279;42.192;24.326;2023-08-20T09:50:49;99093.16;;;48.28
12430;BMP280;6279;42.192;24.326;2023-08-20T09:53:38;99095.47;;;48.70
12430;BMP280;6279;42.192;24.326;2023-08-20T09:56:15;99095.75;;;48.78
12430;BMP280;6279;42.192;24.326;2023-08-20T09:58:43;99094.06;;;48.19
12430;BMP280;6279;42.192;24.326;2023-08-20T10:01:09;99086.75;;;46.68
12430;BMP280;6279;42.192;24.326;2023-08-20T10:03:35;99086.84;;;46.51
12430;BMP280;6279;42.192;24.326;2023-08-20T10:06:02;99097.41;;;45.29
12430;BMP280;6279;42.192;24.326;2023-08-20T10:08:28;99087.97;;;46.60
12430;BMP280;6279;42.192;24.326;2023-08-20T10:10:53;99083.53;;;46.90
12430;BMP280;6279;42.192;24.326;2023-08-20T10:13:19;99083.97;;;46.85
12430;BMP280;6279;42.192;24.326;2023-08-20T10:15:45;99075.50;;;47.23
12430;BMP280;6279;42.192;24.326;2023-08-20T10:18:11;99076.19;;;46.56
12430;BMP280;6279;42.192;24.326;2023-08-20T10:20:39;99070.47;;;47.08
12430;BMP280;6279;42.192;24.326;2023-08-20T10:23:05;99061.56;;;46.69
12430;BMP280;6279;42.192;24.326;2023-08-20T10:25:31;99061.22;;;47.41
12430;BMP280;6279;42.192;24.326;2023-08-20T10:28:31;99056.72;;;48.04
12430;BMP280;6279;42.192;24.326;2023-08-20T10:31:09;99059.03;;;47.66
12430;BMP280;6279;42.192;24.326;2023-08-20T10:36:16;99050.78;;;48.09
12430;BMP280;6279;42.192;24.326;2023-08-20T10:38:45;99061.28;;;48.57
12430;BMP280;6279;42.192;24.326;2023-08-20T10:41:11;99054.91;;;47.37
12430;BMP280;6279;42.192;24.326;2023-08-20T10:43:39;99044.34;;;46.55
12430;BMP280;6279;42.192;24.326;2023-08-20T10:46:19;99050.69;;;47.19
12430;BMP280;6279;42.192;24.326;2023-08-20T10:51:40;99046.81;;;45.37
12430;BMP280;6279;42.192;24.326;2023-08-20T10:54:07;99038.09;;;44.17
12430;BMP280;6279;42.192;24.326;2023-08-20T10:57:09;99040.66;;;43.47
12430;BMP280;6279;42.192;24.326;2023-08-20T10:59:39;99038.34;;;43.49
12430;BMP280;6279;42.192;24.326;2023-08-20T11:02:14;99030.59;;;42.00
12430;BMP280;6279;42.192;24.326;2023-08-20T11:04:40;99023.16;;;41.72
12430;BMP280;6279;42.192;24.326;2023-08-20T11:07:06;99022.00;;;42.23
12430;BMP280;6279;42.192;24.326;2023-08-20T11:09:33;99025.28;;;42.65
12430;BMP280;6279;42.192;24.326;2023-08-20T11:11:59;99034.78;;;41.03
12430;BMP280;6279;42.192;24.326;2023-08-20T11:14:24;99028.72;;;39.86
12430;BMP280;6279;42.192;24.326;2023-08-20T11:16:50;99014.16;;;40.46
12430;BMP280;6279;42.192;24.326;2023-08-20T11:19:20;99014.50;;;40.44
12430;BMP280;6279;42.192;24.326;2023-08-20T11:21:47;99012.31;;;40.16
12430;BMP280;6279;42.192;24.326;2023-08-20T11:24:13;99004.22;;;40.04
12430;BMP280;6279;42.192;24.326;2023-08-20T11:26:40;99001.03;;;39.84
12430;BMP280;6279;42.192;24.326;2023-08-20T11:29:11;98999.16;;;39.54
12430;BMP280;6279;42.192;24.326;2023-08-20T11:31:44;99001.00;;;39.35
12430;BMP280;6279;42.192;24.326;2023-08-20T11:34:11;98999.44;;;38.92
12430;BMP280;6279;42.192;24.326;2023-08-20T11:36:38;98991.22;;;38.77
12430;BMP280;6279;42.192;24.326;2023-08-20T11:39:04;98982.72;;;38.78
12430;BMP280;6279;42.192;24.326;2023-08-20T11:41:30;98970.16;;;38.86
12430;BMP280;6279;42.192;24.326;2023-08-20T11:43:55;98974.22;;;39.37
12430;BMP280;6279;42.192;24.326;2023-08-20T11:46:23;98978.03;;;40.34
12430;BMP280;6279;42.192;24.326;2023-08-20T11:49:05;98971.50;;;40.57
12430;BMP280;6279;42.192;24.326;2023-08-20T11:54:11;98968.63;;;40.68
12430;BMP280;6279;42.192;24.326;2023-08-20T11:56:45;98967.84;;;40.68
12430;BMP280;6279;42.192;24.326;2023-08-20T11:59:11;98967.34;;;40.44
12430;BMP280;6279;42.192;24.326;2023-08-20T12:01:37;98959.88;;;40.41
12430;BMP280;6279;42.192;24.326;2023-08-20T12:04:04;98959.16;;;40.63
12430;BMP280;6279;42.192;24.326;2023-08-20T12:06:30;98958.59;;;40.54
12430;BMP280;6279;42.192;24.326;2023-08-20T12:08:59;98956.44;;;40.44
12430;BMP280;6279;42.192;24.326;2023-08-20T12:11:28;98963.19;;;40.31
12430;BMP280;6279;42.192;24.326;2023-08-20T12:13:54;98949.06;;;40.07
12430;BMP280;6279;42.192;24.326;2023-08-20T12:16:23;98944.03;;;39.76
12430;BMP280;6279;42.192;24.326;2023-08-20T12:18:49;98940.25;;;39.98
12430;BMP280;6279;42.192;24.326;2023-08-20T12:21:15;98942.47;;;40.27
12430;BMP280;6279;42.192;24.326;2023-08-20T12:23:41;98947.25;;;38.44
12430;BMP280;6279;42.192;24.326;2023-08-20T12:26:06;98930.41;;;38.54
12430;BMP280;6279;42.192;24.326;2023-08-20T12:28:33;98936.06;;;37.84
12430;BMP280;6279;42.192;24.326;2023-08-20T12:30:59;98927.22;;;37.87
12430;BMP280;6279;42.192;24.326;2023-08-20T12:33:24;98926.59;;;38.17
12430;BMP280;6279;42.192;24.326;2023-08-20T12:35:50;98924.72;;;38.05
12430;BMP280;6279;42.192;24.326;2023-08-20T12:38:15;98929.38;;;38.32
12430;BMP280;6279;42.192;24.326;2023-08-20T12:40:41;98919.94;;;37.75
12430;BMP280;6279;42.192;24.326;2023-08-20T12:43:06;98928.88;;;37.64
12430;BMP280;6279;42.192;24.326;2023-08-20T12:45:32;98917.50;;;37.86
12430;BMP280;6279;42.192;24.326;2023-08-20T12:47:57;98918.00;;;38.15
12430;BMP280;6279;42.192;24.326;2023-08-20T12:50:22;98912.38;;;38.35
12430;BMP280;6279;42.192;24.326;2023-08-20T12:52:51;98912.91;;;38.67
12430;BMP280;6279;42.192;24.326;2023-08-20T12:55:16;98915.13;;;39.07
12430;BMP280;6279;42.192;24.326;2023-08-20T12:57:55;98904.50;;;39.17
12430;BMP280;6279;42.192;24.326;2023-08-20T13:00:22;98904.22;;;39.22
12430;BMP280;6279;42.192;24.326;2023-08-20T13:02:48;98897.13;;;39.18
12430;BMP280;6279;42.192;24.326;2023-08-20T13:05:14;98899.94;;;39.06
12430;BMP280;6279;42.192;24.326;2023-08-20T13:07:40;98896.44;;;38.90
12430;BMP280;6279;42.192;24.326;2023-08-20T13:10:06;98899.31;;;38.97
12430;BMP280;6279;42.192;24.326;2023-08-20T13:12:34;98899.88;;;38.87
12430;BMP280;6279;42.192;24.326;2023-08-20T13:14:59;98888.31;;;38.21
12430;BMP280;6279;42.192;24.326;2023-08-20T13:17:25;98887.06;;;38.19
12430;BMP280;6279;42.192;24.326;2023-08-20T13:19:51;98886.63;;;38.17
12430;BMP280;6279;42.192;24.326;2023-08-20T13:22:16;98884.94;;;38.40
12430;BMP280;6279;42.192;24.326;2023-08-20T13:24:43;98872.56;;;38.27
12430;BMP280;6279;42.192;24.326;2023-08-20T13:27:08;98876.16;;;37.65
12430;BMP280;6279;42.192;24.326;2023-08-20T13:29:34;98874.84;;;36.89
12430;BMP280;6279;42.192;24.326;2023-08-20T13:31:59;98870.22;;;36.46
12430;BMP280;6279;42.192;24.326;2023-08-20T13:34:26;98876.59;;;35.98
12430;BMP280;6279;42.192;24.326;2023-08-20T13:36:51;98872.22;;;36.05
12430;BMP280;6279;42.192;24.326;2023-08-20T13:39:16;98873.53;;;36.63
12430;BMP280;6279;42.192;24.326;2023-08-20T13:41:43;98868.28;;;37.02
12430;BMP280;6279;42.192;24.326;2023-08-20T13:44:09;98871.84;;;37.52
12430;BMP280;6279;42.192;24.326;2023-08-20T13:46:34;98861.88;;;37.80
12430;BMP280;6279;42.192;24.326;2023-08-20T13:49:00;98864.56;;;38.19
12430;BMP280;6279;42.192;24.326;2023-08-20T13:51:25;98861.56;;;38.50
12430;BMP280;6279;42.192;24.326;2023-08-20T13:53:51;98865.81;;;38.63
12430;BMP280;6279;42.192;24.326;2023-08-20T13:56:16;98864.53;;;38.61
12430;BMP280;6279;42.192;24.326;2023-08-20T13:58:41;98865.03;;;38.36
12430;BMP280;6279;42.192;24.326;2023-08-20T14:01:07;98859.88;;;37.65
12430;BMP280;6279;42.192;24.326;2023-08-20T14:03:32;98856.84;;;37.43
12430;BMP280;6279;42.192;24.326;2023-08-20T14:05:58;98854.19;;;37.70
12430;BMP280;6279;42.192;24.326;2023-08-20T14:08:23;98855.41;;;37.84
12430;BMP280;6279;42.192;24.326;2023-08-20T14:10:49;98859.50;;;37.78
12430;BMP280;6279;42.192;24.326;2023-08-20T14:13:14;98856.88;;;37.82
12430;BMP280;6279;42.192;24.326;2023-08-20T14:15:39;98859.09;;;37.65
12430;BMP280;6279;42.192;24.326;2023-08-20T14:18:05;98855.03;;;37.47
12430;BMP280;6279;42.192;24.326;2023-08-20T14:20:30;98861.78;;;37.53
12430;BMP280;6279;42.192;24.326;2023-08-20T14:22:56;98862.16;;;37.63